sensor_id;sensor_type;location;lat;lon;timestamp;pressure;altitude;pressure_sealevel;temperature;humidity
55656;BME280;41530;52.382;5.270;2024-03-02T00:02:17;99906.06;;;15.25;52.79
55656;BME280;41530;52.382;5.270;2024-03-02T00:04:58;99921.31;;;15.31;52.20
55656;BME280;41530;52.382;5.270;2024-03-02T00:07:41;99925.97;;;15.29;52.48
55656;BME280;41530;52.382;5.270;2024-03-02T00:10:42;99952.44;;;15.55;52.59
55656;BME280;41530;52.382;5.270;2024-03-02T00:13:33;99902.56;;;15.17;52.48
55656;BME280;41530;52.382;5.270;2024-03-02T00:16:22;99887.59;;;15.08;52.56
55656;BME280;41530;52.382;5.270;2024-03-02T00:19:05;99907.88;;;15.17;52.52
55656;BME280;41530;52.382;5.270;2024-03-02T00:22:06;99895.22;;;15.03;52.66
55656;BME280;41530;52.382;5.270;2024-03-02T00:24:46;99913.09;;;15.09;52.48
55656;BME280;41530;52.382;5.270;2024-03-02T00:27:19;99944.97;;;15.25;52.65
55656;BME280;41530;52.382;5.270;2024-03-02T00:33:46;99922.34;;;15.05;52.42
55656;BME280;41530;52.382;5.270;2024-03-02T00:36:30;99981.91;;;15.26;52.50
55656;BME280;41530;52.382;5.270;2024-03-02T00:39:54;99963.28;;;15.10;52.55
55656;BME280;41530;52.382;5.270;2024-03-02T00:42:51;99950.31;;;14.99;52.38
55656;BME280;41530;52.382;5.270;2024-03-02T00:45:29;99985.69;;;15.24;51.94
55656;BME280;41530;52.382;5.270;2024-03-02T00:48:08;99981.44;;;15.05;51.70
55656;BME280;41530;52.382;5.270;2024-03-02T00:51:00;100002.88;;;15.20;51.27
55656;BME280;41530;52.382;5.270;2024-03-02T00:53:41;99983.09;;;15.06;51.80
55656;BME280;41530;52.382;5.270;2024-03-02T00:59:42;99978.47;;;15.00;51.29
55656;BME280;41530;52.382;5.270;2024-03-02T01:02:14;100065.03;;;15.51;51.25
55656;BME280;41530;52.382;5.270;2024-03-02T01:04:49;100002.56;;;15.15;51.15
55656;BME280;41530;52.382;5.270;2024-03-02T01:07:31;100019.78;;;15.19;51.27
55656;BME280;41530;52.382;5.270;2024-03-02T01:10:04;100046.13;;;15.20;50.93
55656;BME280;41530;52.382;5.270;2024-03-02T01:12:36;100043.38;;;15.30;50.97
55656;BME280;41530;52.382;5.270;2024-03-02T01:15:13;100088.03;;;15.51;51.10
55656;BME280;41530;52.382;5.270;2024-03-02T01:17:59;100004.94;;;15.00;51.09
55656;BME280;41530;52.382;5.270;2024-03-02T01:20:32;99994.34;;;15.00;51.15
55656;BME280;41530;52.382;5.270;2024-03-02T01:23:23;100020.31;;;15.22;50.95
55656;BME280;41530;52.382;5.270;2024-03-02T01:26:06;100041.22;;;15.33;51.17
55656;BME280;41530;52.382;5.270;2024-03-02T01:28:48;100033.53;;;15.22;51.06
55656;BME280;41530;52.382;5.270;2024-03-02T01:31:29;100025.88;;;15.11;51.15
55656;BME280;41530;52.382;5.270;2024-03-02T01:33:58;100012.41;;;15.05;51.17
55656;BME280;41530;52.382;5.270;2024-03-02T01:36:36;100063.25;;;15.34;51.16
55656;BME280;41530;52.382;5.270;2024-03-02T01:39:09;100026.09;;;15.18;51.09
55656;BME280;41530;52.382;5.270;2024-03-02T01:41:40;100011.94;;;15.09;51.19
55656;BME280;41530;52.382;5.270;2024-03-02T01:44:12;99996.69;;;15.03;50.97
55656;BME280;41530;52.382;5.270;2024-03-02T01:46:43;100063.94;;;15.36;51.15
55656;BME280;41530;52.382;5.270;2024-03-02T01:49:14;100040.81;;;15.20;50.96
55656;BME280;41530;52.382;5.270;2024-03-02T01:51:43;100012.41;;;15.05;50.99
55656;BME280;41530;52.382;5.270;2024-03-02T01:54:14;100092.22;;;15.53;50.99
55656;BME280;41530;52.382;5.270;2024-03-02T01:56:49;100018.06;;;15.10;51.05
55656;BME280;41530;52.382;5.270;2024-03-02T01:59:42;100039.97;;;15.20;51.33
55656;BME280;41530;52.382;5.270;2024-03-02T02:02:24;100044.97;;;15.23;51.46
55656;BME280;41530;52.382;5.270;2024-03-02T02:04:51;100072.41;;;15.40;51.52
55656;BME280;41530;52.382;5.270;2024-03-02T02:07:18;100055.28;;;15.26;51.56
55656;BME280;41530;52.382;5.270;2024-03-02T02:09:47;100028.38;;;15.13;51.57
55656;BME280;41530;52.382;5.270;2024-03-02T02:12:20;100030.47;;;15.09;51.27
55656;BME280;41530;52.382;5.270;2024-03-02T02:15:00;100055.66;;;15.31;51.67
55656;BME280;41530;52.382;5.270;2024-03-02T02:17:32;99997.81;;;15.01;51.71
55656;BME280;41530;52.382;5.270;2024-03-02T02:20:02;100072.41;;;15.40;51.47
55656;BME280;41530;52.382;5.270;2024-03-02T02:22:28;100048.00;;;15.28;51.59
55656;BME280;41530;52.382;5.270;2024-03-02T02:24:59;100058.78;;;15.34;51.66
55656;BME280;41530;52.382;5.270;2024-03-02T02:30:12;100075.09;;;15.22;51.51
55656;BME280;41530;52.382;5.270;2024-03-02T02:32:45;100072.31;;;15.23;51.37
55656;BME280;41530;52.382;5.270;2024-03-02T02:35:31;100004.25;;;14.98;51.27
55656;BME280;41530;52.382;5.270;2024-03-02T02:38:03;100072.09;;;15.43;51.33
55656;BME280;41530;52.382;5.270;2024-03-02T02:40:35;100062.75;;;15.30;51.33
55656;BME280;41530;52.382;5.270;2024-03-02T02:43:05;100045.44;;;15.18;51.40
55656;BME280;41530;52.382;5.270;2024-03-02T02:45:35;100075.81;;;15.32;51.27
55656;BME280;41530;52.382;5.270;2024-03-02T02:48:05;100035.78;;;15.09;51.23
55656;BME280;41530;52.382;5.270;2024-03-02T02:50:35;100081.50;;;15.37;51.18
55656;BME280;41530;52.382;5.270;2024-03-02T02:53:03;100029.47;;;15.02;51.24
55656;BME280;41530;52.382;5.270;2024-03-02T02:55:34;100068.97;;;15.21;51.26
55656;BME280;41530;52.382;5.270;2024-03-02T02:58:01;100084.59;;;15.32;51.46
55656;BME280;41530;52.382;5.270;2024-03-02T03:00:37;100072.09;;;15.17;51.10
55656;BME280;41530;52.382;5.270;2024-03-02T03:03:08;100033.53;;;14.96;51.25
55656;BME280;41530;52.382;5.270;2024-03-02T03:05:45;100067.13;;;15.14;51.35
55656;BME280;41530;52.382;5.270;2024-03-02T03:08:17;100115.00;;;15.46;51.19
55656;BME280;41530;52.382;5.270;2024-03-02T03:10:49;100086.00;;;15.19;51.33
55656;BME280;41530;52.382;5.270;2024-03-02T03:13:45;100025.69;;;14.87;51.49
55656;BME280;41530;52.382;5.270;2024-03-02T03:16:14;100087.06;;;15.26;51.10
55656;BME280;41530;52.382;5.270;2024-03-02T03:18:44;100040.97;;;14.93;51.13
55656;BME280;41530;52.382;5.270;2024-03-02T03:21:16;100037.47;;;14.92;51.41
55656;BME280;41530;52.382;5.270;2024-03-02T03:23:47;100096.69;;;15.27;51.57
55656;BME280;41530;52.382;5.270;2024-03-02T03:26:19;100046.34;;;15.01;51.19
55656;BME280;41530;52.382;5.270;2024-03-02T03:28:48;100047.47;;;14.98;51.36
55656;BME280;41530;52.382;5.270;2024-03-02T03:31:15;100034.53;;;14.95;51.34
55656;BME280;41530;52.382;5.270;2024-03-02T03:33:47;100075.22;;;15.12;51.40
55656;BME280;41530;52.382;5.270;2024-03-02T03:36:15;100098.34;;;15.28;51.70
55656;BME280;41530;52.382;5.270;2024-03-02T03:38:42;100094.19;;;15.25;51.58
55656;BME280;41530;52.382;5.270;2024-03-02T03:41:11;100076.88;;;15.13;51.72
55656;BME280;41530;52.382;5.270;2024-03-02T03:43:55;100070.22;;;15.09;51.58
55656;BME280;41530;52.382;5.270;2024-03-02T03:46:22;100068.19;;;15.03;51.77
55656;BME280;41530;52.382;5.270;2024-03-02T03:49:01;100133.06;;;15.43;51.72
55656;BME280;41530;52.382;5.270;2024-03-02T03:51:36;100111.91;;;15.25;51.70
55656;BME280;41530;52.382;5.270;2024-03-02T03:54:08;100066.00;;;14.98;51.84
55656;BME280;41530;52.382;5.270;2024-03-02T03:56:41;100095.28;;;15.15;51.81
55656;BME280;41530;52.382;5.270;2024-03-02T03:59:22;100099.59;;;15.16;51.59
55656;BME280;41530;52.382;5.270;2024-03-02T04:02:11;100052.34;;;14.85;51.73
55656;BME280;41530;52.382;5.270;2024-03-02T04:05:05;100072.53;;;14.86;51.81
55656;BME280;41530;52.382;5.270;2024-03-02T04:07:51;100072.69;;;14.85;51.81
55656;BME280;41530;52.382;5.270;2024-03-02T04:10:33;100075.88;;;14.88;51.63
55656;BME280;41530;52.382;5.270;2024-03-02T04:13:10;100110.09;;;15.08;51.48
55656;BME280;41530;52.382;5.270;2024-03-02T04:15:46;100163.66;;;15.37;51.79
55656;BME280;41530;52.382;5.270;2024-03-02T04:18:18;100110.09;;;15.08;51.82
55656;BME280;41530;52.382;5.270;2024-03-02T04:20:51;100120.84;;;15.06;51.66
55656;BME280;41530;52.382;5.270;2024-03-02T04:23:41;100068.16;;;14.77;51.79
55656;BME280;41530;52.382;5.270;2024-03-02T04:26:47;100086.47;;;14.88;51.56
55656;BME280;41530;52.382;5.270;2024-03-02T04:29:34;100115.03;;;15.03;51.42
55656;BME280;41530;52.382;5.270;2024-03-02T04:32:04;100087.88;;;14.83;51.19
55656;BME280;41530;52.382;5.270;2024-03-02T04:34:32;100122.31;;;15.01;51.62
55656;BME280;41530;52.382;5.270;2024-03-02T04:37:02;100119.66;;;15.01;51.71
55656;BME280;41530;52.382;5.270;2024-03-02T04:42:18;100107.31;;;14.91;51.56
55656;BME280;41530;52.382;5.270;2024-03-02T04:45:26;100154.25;;;15.17;51.84
55656;BME280;41530;52.382;5.270;2024-03-02T04:48:09;100087.97;;;14.73;51.78
55656;BME280;41530;52.382;5.270;2024-03-02T04:50:45;100172.69;;;15.26;51.77
55656;BME280;41530;52.382;5.270;2024-03-02T04:53:17;100098.91;;;14.78;51.66
55656;BME280;41530;52.382;5.270;2024-03-02T04:55:47;100094.25;;;14.72;51.45
55656;BME280;41530;52.382;5.270;2024-03-02T04:58:35;100179.41;;;15.21;51.80
55656;BME280;41530;52.382;5.270;2024-03-02T05:01:05;100177.91;;;15.18;51.73
55656;BME280;41530;52.382;5.270;2024-03-02T05:03:34;100175.88;;;15.12;51.84
55656;BME280;41530;52.382;5.270;2024-03-02T05:06:06;100194.88;;;15.25;51.92
55656;BME280;41530;52.382;5.270;2024-03-02T05:08:45;100128.59;;;14.82;51.68
55656;BME280;41530;52.382;5.270;2024-03-02T05:11:12;100147.28;;;14.98;51.85
55656;BME280;41530;52.382;5.270;2024-03-02T05:14:22;100141.44;;;14.94;51.94
55656;BME280;41530;52.382;5.270;2024-03-02T05:16:52;100138.19;;;14.83;51.77
55656;BME280;41530;52.382;5.270;2024-03-02T05:19:32;100144.25;;;14.93;51.93
55656;BME280;41530;52.382;5.270;2024-03-02T05:22:15;100160.22;;;15.01;51.97
55656;BME280;41530;52.382;5.270;2024-03-02T05:24:46;100208.56;;;15.21;51.76
55656;BME280;41530;52.382;5.270;2024-03-02T05:27:17;100157.81;;;14.90;51.92
55656;BME280;41530;52.382;5.270;2024-03-02T05:29:51;100149.47;;;14.85;51.80
55656;BME280;41530;52.382;5.270;2024-03-02T05:32:45;100160.59;;;14.88;51.70
55656;BME280;41530;52.382;5.270;2024-03-02T05:35:37;100145.44;;;14.81;51.69
55656;BME280;41530;52.382;5.270;2024-03-02T05:41:57;100164.38;;;14.86;51.96
55656;BME280;41530;52.382;5.270;2024-03-02T05:44:36;100173.91;;;14.96;51.90
55656;BME280;41530;52.382;5.270;2024-03-02T05:47:14;100148.25;;;14.79;52.06
55656;BME280;41530;52.382;5.270;2024-03-02T05:50:02;100116.94;;;14.57;51.89
55656;BME280;41530;52.382;5.270;2024-03-02T05:52:48;100129.44;;;14.65;51.86
55656;BME280;41530;52.382;5.270;2024-03-02T05:55:39;100158.41;;;14.84;51.98
55656;BME280;41530;52.382;5.270;2024-03-02T05:58:23;100145.00;;;14.68;52.12
55656;BME280;41530;52.382;5.270;2024-03-02T06:01:12;100148.19;;;14.71;51.87
55656;BME280;41530;52.382;5.270;2024-03-02T06:03:46;100171.63;;;14.84;52.00
55656;BME280;41530;52.382;5.270;2024-03-02T06:06:17;100214.78;;;15.12;52.08
55656;BME280;41530;52.382;5.270;2024-03-02T06:08:47;100116.25;;;14.55;51.97
55656;BME280;41530;52.382;5.270;2024-03-02T06:15:33;100231.81;;;15.09;51.84
55656;BME280;41530;52.382;5.270;2024-03-02T06:18:31;100230.97;;;15.09;51.94
55656;BME280;41530;52.382;5.270;2024-03-02T06:21:44;100186.47;;;14.77;51.88
55656;BME280;41530;52.382;5.270;2024-03-02T06:31:26;100248.13;;;15.05;51.82
55656;BME280;41530;52.382;5.270;2024-03-02T06:37:34;100246.09;;;14.98;51.90
55656;BME280;41530;52.382;5.270;2024-03-02T06:40:32;100178.63;;;14.57;51.99
55656;BME280;41530;52.382;5.270;2024-03-02T06:43:42;100262.53;;;15.02;51.89
55656;BME280;41530;52.382;5.270;2024-03-02T06:46:53;100181.56;;;14.54;51.71
55656;BME280;41530;52.382;5.270;2024-03-02T06:49:44;100232.38;;;14.85;51.83
55656;BME280;41530;52.382;5.270;2024-03-02T06:52:29;100185.34;;;14.52;51.79
55656;BME280;41530;52.382;5.270;2024-03-02T06:54:56;100247.00;;;14.89;51.99
55656;BME280;41530;52.382;5.270;2024-03-02T06:57:31;100195.34;;;14.58;51.88
55656;BME280;41530;52.382;5.270;2024-03-02T07:00:04;100222.84;;;14.75;52.09
55656;BME280;41530;52.382;5.270;2024-03-02T07:03:03;100270.16;;;15.05;52.03
55656;BME280;41530;52.382;5.270;2024-03-02T07:05:42;100259.75;;;15.04;51.87
55656;BME280;41530;52.382;5.270;2024-03-02T07:08:18;100183.78;;;14.59;51.59
55656;BME280;41530;52.382;5.270;2024-03-02T07:10:55;100216.78;;;14.82;51.56
55656;BME280;41530;52.382;5.270;2024-03-02T07:13:33;100234.81;;;14.96;51.48
55656;BME280;41530;52.382;5.270;2024-03-02T07:16:08;100205.97;;;14.93;51.16
55656;BME280;41530;52.382;5.270;2024-03-02T07:18:59;100171.56;;;14.76;51.08
55656;BME280;41530;52.382;5.270;2024-03-02T07:21:49;100203.28;;;15.03;50.65
55656;BME280;41530;52.382;5.270;2024-03-02T07:24:32;100219.31;;;15.19;50.65
55656;BME280;41530;52.382;5.270;2024-03-02T07:27:20;100266.75;;;15.58;50.77
55656;BME280;41530;52.382;5.270;2024-03-02T07:30:13;100217.03;;;15.42;50.53
55656;BME280;41530;52.382;5.270;2024-03-02T07:32:50;100222.25;;;15.52;50.64
55656;BME280;41530;52.382;5.270;2024-03-02T07:35:17;100268.50;;;15.93;51.00
55656;BME280;41530;52.382;5.270;2024-03-02T07:37:44;100217.59;;;15.72;51.11
55656;BME280;41530;52.382;5.270;2024-03-02T07:40:11;100230.00;;;15.89;51.28
55656;BME280;41530;52.382;5.270;2024-03-02T07:42:41;100276.00;;;16.23;51.28
55656;BME280;41530;52.382;5.270;2024-03-02T07:45:08;100273.91;;;16.35;51.00
55656;BME280;41530;52.382;5.270;2024-03-02T07:47:35;100266.78;;;16.35;50.85
55656;BME280;41530;52.382;5.270;2024-03-02T07:50:03;100274.16;;;16.50;50.85
55656;BME280;41530;52.382;5.270;2024-03-02T07:52:32;100284.78;;;16.58;50.93
55656;BME280;41530;52.382;5.270;2024-03-02T07:55:03;100234.41;;;16.40;50.61
55656;BME280;41530;52.382;5.270;2024-03-02T07:57:30;100271.38;;;16.59;50.80
55656;BME280;41530;52.382;5.270;2024-03-02T07:59:57;100267.19;;;16.57;50.57
55656;BME280;41530;52.382;5.270;2024-03-02T08:02:29;100245.25;;;16.47;50.59
55656;BME280;41530;52.382;5.270;2024-03-02T08:04:56;100229.25;;;16.30;50.44
55656;BME280;41530;52.382;5.270;2024-03-02T08:07:24;100258.38;;;16.48;50.62
55656;BME280;41530;52.382;5.270;2024-03-02T08:09:51;100266.69;;;16.53;50.80
55656;BME280;41530;52.382;5.270;2024-03-02T08:12:18;100316.47;;;16.77;50.70
55656;BME280;41530;52.382;5.270;2024-03-02T08:14:50;100253.84;;;16.40;50.64
55656;BME280;41530;52.382;5.270;2024-03-02T08:17:19;100219.63;;;16.29;50.65
55656;BME280;41530;52.382;5.270;2024-03-02T08:19:49;100230.31;;;16.46;50.72
55656;BME280;41530;52.382;5.270;2024-03-02T08:22:20;100250.94;;;16.60;50.78
55656;BME280;41530;52.382;5.270;2024-03-02T08:24:50;100259.34;;;16.81;50.73
55656;BME280;41530;52.382;5.270;2024-03-02T08:27:24;100228.09;;;16.67;50.67
55656;BME280;41530;52.382;5.270;2024-03-02T08:30:03;100259.88;;;16.93;50.29
55656;BME280;41530;52.382;5.270;2024-03-02T08:32:40;100220.38;;;16.90;50.35
55656;BME280;41530;52.382;5.270;2024-03-02T08:35:12;100270.09;;;17.30;50.38
55656;BME280;41530;52.382;5.270;2024-03-02T08:37:42;100243.53;;;17.30;50.03
55656;BME280;41530;52.382;5.270;2024-03-02T08:40:15;100267.31;;;17.56;50.17
55656;BME280;41530;52.382;5.270;2024-03-02T08:42:48;100258.34;;;17.81;49.54
55656;BME280;41530;52.382;5.270;2024-03-02T08:45:17;100222.94;;;17.80;49.27
55656;BME280;41530;52.382;5.270;2024-03-02T08:48:12;100258.75;;;18.33;48.79
55656;BME280;41530;52.382;5.270;2024-03-02T08:51:03;100220.94;;;18.38;48.70
55656;BME280;41530;52.382;5.270;2024-03-02T08:53:34;100269.16;;;18.98;48.17
55656;BME280;41530;52.382;5.270;2024-03-02T08:56:08;100250.09;;;19.09;48.06
55656;BME280;41530;52.382;5.270;2024-03-02T08:58:39;100292.16;;;19.53;47.58
55656;BME280;41530;52.382;5.270;2024-03-02T09:01:12;100262.56;;;19.63;47.49
55656;BME280;41530;52.382;5.270;2024-03-02T09:03:44;100241.97;;;19.71;46.52
55656;BME280;41530;52.382;5.270;2024-03-02T09:06:17;100234.00;;;19.86;47.01
55656;BME280;41530;52.382;5.270;2024-03-02T09:08:46;100293.84;;;20.44;46.22
55656;BME280;41530;52.382;5.270;2024-03-02T09:11:22;100250.63;;;20.40;46.07
55656;BME280;41530;52.382;5.270;2024-03-02T09:14:00;100258.28;;;20.58;45.43
55656;BME280;41530;52.382;5.270;2024-03-02T09:16:43;100290.28;;;21.02;45.48
55656;BME280;41530;52.382;5.270;2024-03-02T09:19:12;100227.06;;;20.80;45.33
55656;BME280;41530;52.382;5.270;2024-03-02T09:21:39;100289.09;;;21.41;44.92
55656;BME280;41530;52.382;5.270;2024-03-02T09:24:08;100269.34;;;21.42;44.73
55656;BME280;41530;52.382;5.270;2024-03-02T09:26:36;100283.16;;;21.66;44.74
55656;BME280;41530;52.382;5.270;2024-03-02T09:29:05;100222.00;;;21.42;44.20
55656;BME280;41530;52.382;5.270;2024-03-02T09:31:50;100273.88;;;21.90;43.11
55656;BME280;41530;52.382;5.270;2024-03-02T09:34:31;100295.78;;;22.22;44.20
55656;BME280;41530;52.382;5.270;2024-03-02T09:37:00;100304.75;;;22.35;43.59
55656;BME280;41530;52.382;5.270;2024-03-02T09:39:27;100240.31;;;22.16;43.98
55656;BME280;41530;52.382;5.270;2024-03-02T09:41:57;100236.84;;;22.22;42.87
55656;BME280;41530;52.382;5.270;2024-03-02T09:44:29;100236.09;;;22.34;43.22
55656;BME280;41530;52.382;5.270;2024-03-02T09:46:59;100234.25;;;22.42;42.95
55656;BME280;41530;52.382;5.270;2024-03-02T09:49:25;100296.09;;;22.74;41.60
55656;BME280;41530;52.382;5.270;2024-03-02T09:51:52;100302.13;;;22.77;39.72
55656;BME280;41530;52.382;5.270;2024-03-02T09:54:19;100243.31;;;22.34;41.06
55656;BME280;41530;52.382;5.270;2024-03-02T09:56:49;100271.41;;;22.51;40.95
55656;BME280;41530;52.382;5.270;2024-03-02T09:59:17;100300.75;;;22.59;39.58
55656;BME280;41530;52.382;5.270;2024-03-02T10:02:01;100264.09;;;22.32;39.02
55656;BME280;41530;52.382;5.270;2024-03-02T10:04:29;100299.88;;;22.52;39.64
55656;BME280;41530;52.382;5.270;2024-03-02T10:09:49;100283.56;;;22.47;41.95
55656;BME280;41530;52.382;5.270;2024-03-02T10:12:17;100256.44;;;22.22;40.35
55656;BME280;41530;52.382;5.270;2024-03-02T10:14:47;100301.91;;;22.44;40.84
55656;BME280;41530;52.382;5.270;2024-03-02T10:17:17;100266.31;;;22.22;39.54
55656;BME280;41530;52.382;5.270;2024-03-02T10:19:44;100284.91;;;22.30;40.76
55656;BME280;41530;52.382;5.270;2024-03-02T10:22:10;100265.63;;;22.13;40.32
55656;BME280;41530;52.382;5.270;2024-03-02T10:24:42;100308.88;;;22.38;39.55
55656;BME280;41530;52.382;5.270;2024-03-02T10:27:31;100278.91;;;22.28;39.56
55656;BME280;41530;52.382;5.270;2024-03-02T10:30:02;100295.63;;;22.30;40.16
55656;BME280;41530;52.382;5.270;2024-03-02T10:32:29;100293.34;;;22.27;40.83
55656;BME280;41530;52.382;5.270;2024-03-02T10:34:56;100292.69;;;22.25;41.42
55656;BME280;41530;52.382;5.270;2024-03-02T10:37:23;100260.34;;;21.98;41.37
55656;BME280;41530;52.382;5.270;2024-03-02T10:39:52;100289.34;;;22.16;41.50
55656;BME280;41530;52.382;5.270;2024-03-02T10:42:19;100259.09;;;21.94;41.26
55656;BME280;41530;52.382;5.270;2024-03-02T10:44:46;100290.09;;;22.03;41.98
55656;BME280;41530;52.382;5.270;2024-03-02T10:47:15;100291.66;;;21.98;41.87
55656;BME280;41530;52.382;5.270;2024-03-02T10:49:43;100259.72;;;21.68;41.67
55656;BME280;41530;52.382;5.270;2024-03-02T10:52:10;100285.16;;;21.86;42.03
55656;BME280;41530;52.382;5.270;2024-03-02T10:54:37;100298.91;;;21.76;42.18
55656;BME280;41530;52.382;5.270;2024-03-02T10:57:07;100282.78;;;21.69;42.45
55656;BME280;41530;52.382;5.270;2024-03-02T10:59:37;100246.66;;;21.38;43.20
55656;BME280;41530;52.382;5.270;2024-03-02T11:02:11;100285.06;;;21.51;42.30
55656;BME280;41530;52.382;5.270;2024-03-02T11:04:40;100264.09;;;21.33;42.23
55656;BME280;41530;52.382;5.270;2024-03-02T11:07:10;100256.41;;;21.24;43.01
55656;BME280;41530;52.382;5.270;2024-03-02T11:09:42;100272.91;;;21.27;42.35
55656;BME280;41530;52.382;5.270;2024-03-02T11:12:32;100273.38;;;21.16;42.15
55656;BME280;41530;52.382;5.270;2024-03-02T11:15:05;100268.31;;;21.07;43.14
55656;BME280;41530;52.382;5.270;2024-03-02T11:17:36;100261.16;;;20.92;43.47
55656;BME280;41530;52.382;5.270;2024-03-02T11:20:04;100249.41;;;20.72;44.14
55656;BME280;41530;52.382;5.270;2024-03-02T11:22:31;100252.28;;;20.71;43.90
55656;BME280;41530;52.382;5.270;2024-03-02T11:24:58;100259.47;;;20.55;44.44
55656;BME280;41530;52.382;5.270;2024-03-02T11:33:03;100290.88;;;20.39;45.19
55656;BME280;41530;52.382;5.270;2024-03-02T11:35:43;100281.47;;;20.28;44.33
55656;BME280;41530;52.382;5.270;2024-03-02T11:38:13;100281.09;;;20.16;45.15
55656;BME280;41530;52.382;5.270;2024-03-02T11:40:40;100281.19;;;20.08;45.28
55656;BME280;41530;52.382;5.270;2024-03-02T11:43:07;100299.09;;;20.00;45.31
55656;BME280;41530;52.382;5.270;2024-03-02T11:45:36;100285.00;;;19.91;45.68
55656;BME280;41530;52.382;5.270;2024-03-02T11:48:08;100278.63;;;19.77;45.68
55656;BME280;41530;52.382;5.270;2024-03-02T11:50:46;100270.03;;;19.67;44.97
55656;BME280;41530;52.382;5.270;2024-03-02T11:53:13;100258.31;;;19.53;45.67
55656;BME280;41530;52.382;5.270;2024-03-02T11:55:41;100270.47;;;19.56;45.48
55656;BME280;41530;52.382;5.270;2024-03-02T11:58:10;100275.66;;;19.49;46.02
55656;BME280;41530;52.382;5.270;2024-03-02T12:00:37;100232.00;;;19.19;46.02
55656;BME280;41530;52.382;5.270;2024-03-02T12:03:05;100226.09;;;19.09;46.16
55656;BME280;41530;52.382;5.270;2024-03-02T12:05:33;100258.63;;;19.28;46.10
55656;BME280;41530;52.382;5.270;2024-03-02T12:08:03;100264.00;;;19.19;46.42
55656;BME280;41530;52.382;5.270;2024-03-02T12:10:31;100243.25;;;19.07;46.53
55656;BME280;41530;52.382;5.270;2024-03-02T12:13:02;100253.56;;;19.10;46.38
55656;BME280;41530;52.382;5.270;2024-03-02T12:15:31;100181.75;;;18.63;46.65
55656;BME280;41530;52.382;5.270;2024-03-02T12:18:01;100183.22;;;18.57;46.21
55656;BME280;41530;52.382;5.270;2024-03-02T12:20:30;100196.84;;;18.70;46.49
55656;BME280;41530;52.382;5.270;2024-03-02T12:23:02;100167.75;;;18.52;46.31
55656;BME280;41530;52.382;5.270;2024-03-02T12:25:30;100166.94;;;18.52;46.80
55656;BME280;41530;52.382;5.270;2024-03-02T12:28:00;100221.44;;;18.80;47.18
55656;BME280;41530;52.382;5.270;2024-03-02T12:30:29;100200.91;;;18.58;47.05
55656;BME280;41530;52.382;5.270;2024-03-02T12:32:57;100206.91;;;18.60;47.02
55656;BME280;41530;52.382;5.270;2024-03-02T12:35:24;100197.38;;;18.58;47.38
55656;BME280;41530;52.382;5.270;2024-03-02T12:37:53;100205.06;;;18.61;47.33
55656;BME280;41530;52.382;5.270;2024-03-02T12:40:20;100226.31;;;18.77;47.65
55656;BME280;41530;52.382;5.270;2024-03-02T12:42:49;100215.84;;;18.67;47.42
55656;BME280;41530;52.382;5.270;2024-03-02T12:45:17;100159.72;;;18.30;47.26
55656;BME280;41530;52.382;5.270;2024-03-02T12:47:51;100177.81;;;18.42;47.10
55656;BME280;41530;52.382;5.270;2024-03-02T12:50:18;100186.47;;;18.44;47.48
55656;BME280;41530;52.382;5.270;2024-03-02T12:52:53;100161.38;;;18.31;47.35
55656;BME280;41530;52.382;5.270;2024-03-02T12:55:21;100217.38;;;18.62;47.29
55656;BME280;41530;52.382;5.270;2024-03-02T12:57:52;100209.38;;;18.62;47.40
55656;BME280;41530;52.382;5.270;2024-03-02T13:00:20;100214.34;;;18.65;47.27
55656;BME280;41530;52.382;5.270;2024-03-02T13:02:49;100168.03;;;18.35;47.18
55656;BME280;41530;52.382;5.270;2024-03-02T13:05:18;100205.53;;;18.56;46.93
55656;BME280;41530;52.382;5.270;2024-03-02T13:07:47;100157.22;;;18.28;47.19
55656;BME280;41530;52.382;5.270;2024-03-02T13:10:14;100207.22;;;18.57;47.34
55656;BME280;41530;52.382;5.270;2024-03-02T13:12:42;100202.72;;;18.58;47.16
55656;BME280;41530;52.382;5.270;2024-03-02T13:15:09;100180.53;;;18.34;47.42
55656;BME280;41530;52.382;5.270;2024-03-02T13:17:41;100158.59;;;18.24;47.11
55656;BME280;41530;52.382;5.270;2024-03-02T13:20:11;100152.28;;;18.17;47.10
55656;BME280;41530;52.382;5.270;2024-03-02T13:22:41;100130.06;;;18.02;47.57
55656;BME280;41530;52.382;5.270;2024-03-02T13:25:08;100211.38;;;18.51;48.03
55656;BME280;41530;52.382;5.270;2024-03-02T13:27:38;100143.34;;;18.10;47.79
55656;BME280;41530;52.382;5.270;2024-03-02T13:30:06;100204.44;;;18.50;47.54
55656;BME280;41530;52.382;5.270;2024-03-02T13:32:35;100180.69;;;18.33;47.35
55656;BME280;41530;52.382;5.270;2024-03-02T13:35:02;100199.28;;;18.41;47.41
55656;BME280;41530;52.382;5.270;2024-03-02T13:37:29;100183.19;;;18.34;47.17
55656;BME280;41530;52.382;5.270;2024-03-02T13:39:56;100153.78;;;18.20;47.30
55656;BME280;41530;52.382;5.270;2024-03-02T13:42:22;100197.78;;;18.46;47.04
55656;BME280;41530;52.382;5.270;2024-03-02T13:44:49;100151.97;;;18.20;46.91
55656;BME280;41530;52.382;5.270;2024-03-02T13:47:17;100178.53;;;18.36;47.13
55656;BME280;41530;52.382;5.270;2024-03-02T13:49:44;100176.50;;;18.38;47.84
55656;BME280;41530;52.382;5.270;2024-03-02T13:52:14;100176.31;;;18.40;48.12
55656;BME280;41530;52.382;5.270;2024-03-02T13:54:42;100113.59;;;17.98;48.03
55656;BME280;41530;52.382;5.270;2024-03-02T13:57:10;100137.81;;;18.20;47.79
55656;BME280;41530;52.382;5.270;2024-03-02T13:59:38;100202.88;;;18.56;47.76
55656;BME280;41530;52.382;5.270;2024-03-02T14:02:05;100162.88;;;18.33;47.32
55656;BME280;41530;52.382;5.270;2024-03-02T14:04:36;100187.25;;;18.53;47.47
55656;BME280;41530;52.382;5.270;2024-03-02T14:07:05;100162.72;;;18.35;47.74
55656;BME280;41530;52.382;5.270;2024-03-02T14:09:35;100141.44;;;18.27;47.59